Time;durP1;ratioP1;P1;durP2;ratioP2;P2;SDS_P1;SDS_P2;PMS_P1;PMS_P2;Temp;Humidity;BMP_temperature;BMP_pressure;BME280_temperature;BME280_humidity;BME280_pressure;Samples;Min_cycle;Max_cycle;Signal;HPM_P1;HPM_P2
2022/07/30 00:02:15;;;;;;;;;;;24.70;53.50;;;;;;5116357;28;19908;-76
2022/07/30 00:04:41;;;;;;;;;;;24.70;53.80;;;;;;5116338;28;19912;-76
2022/07/30 00:07:07;;;;;;;;;;;24.70;53.90;;;;;;5116301;28;19922;-76
2022/07/30 00:09:32;;;;;;;;;;;24.70;53.80;;;;;;5116529;28;19915;-76
2022/07/30 00:11:58;;;;;;;;;;;24.70;53.80;;;;;;5116134;28;20376;-76
2022/07/30 00:14:24;;;;;;;;;;;24.60;53.80;;;;;;5115899;28;20003;-77
2022/07/30 00:16:50;;;;;;;;;;;24.60;53.80;;;;;;5115962;28;19922;-76
2022/07/30 00:19:15;;;;;;;;;;;24.60;53.80;;;;;;5115949;28;19908;-76
2022/07/30 00:21:41;;;;;;;;;;;24.60;53.90;;;;;;5115994;28;19946;-77
2022/07/30 00:24:07;;;;;;;;;;;24.50;54.00;;;;;;5115752;28;19954;-76
2022/07/30 00:26:33;;;;;;;;;;;24.50;53.90;;;;;;5116178;28;19908;-76
2022/07/30 00:28:58;;;;;;;;;;;24.50;54.10;;;;;;5115837;28;19915;-77
2022/07/30 00:31:24;;;;;;;;;;;24.50;54.10;;;;;;5115768;28;20006;-76
2022/07/30 00:33:49;;;;;;;;;;;24.50;54.20;;;;;;5115588;28;19929;-77
2022/07/30 00:36:15;;;;;;;;;;;24.50;54.30;;;;;;5114553;28;19924;-76
2022/07/30 00:38:40;;;;;;;;;;;24.50;54.10;;;;;;5116134;28;20482;-77
2022/07/30 00:41:06;;;;;;;;;;;24.50;54.10;;;;;;5115592;28;19912;-77
2022/07/30 00:43:31;;;;;;;;;;;24.50;53.90;;;;;;5115526;28;19916;-76
2022/07/30 00:45:57;;;;;;;;;;;24.50;54.20;;;;;;5115904;28;19907;-76
2022/07/30 00:48:22;;;;;;;;;;;24.50;54.00;;;;;;5115356;28;19915;-76
2022/07/30 00:50:48;;;;;;;;;;;24.50;54.10;;;;;;5115253;28;19960;-76
2022/07/30 00:53:14;;;;;;;;;;;24.50;54.20;;;;;;5115707;28;19907;-76
2022/07/30 00:55:39;;;;;;;;;;;24.40;54.10;;;;;;5115311;28;19955;-77
2022/07/30 00:58:05;;;;;;;;;;;24.40;54.20;;;;;;5115316;28;19930;-76
2022/07/30 01:00:30;;;;;;;;;;;24.40;54.10;;;;;;5097213;28;19918;-76
2022/07/30 01:02:56;;;;;;;;;;;24.40;54.40;;;;;;5114833;28;19950;-76
2022/07/30 01:05:21;;;;;;;;;;;24.40;54.30;;;;;;5115145;28;20410;-77
2022/07/30 01:07:47;;;;;;;;;;;24.40;54.30;;;;;;5114930;28;19908;-76
2022/07/30 01:10:14;;;;;;;;;;;24.30;54.30;;;;;;5115772;28;19911;-76
2022/07/30 01:12:41;;;;;;;;;;;24.30;54.40;;;;;;5115404;28;19908;-77
2022/07/30 01:15:08;;;;;;;;;;;24.30;54.40;;;;;;5115355;28;19998;-76
2022/07/30 01:17:34;;;;;;;;;;;24.30;54.30;;;;;;5114922;28;19938;-76
2022/07/30 01:20:08;;;;;;;;;;;24.30;54.40;;;;;;5114735;28;19912;-75
2022/07/30 01:22:39;;;;;;;;;;;24.40;54.30;;;;;;5114646;28;19915;-76
2022/07/30 01:25:16;;;;;;;;;;;24.40;54.30;;;;;;5113641;28;20052;-76
2022/07/30 01:27:49;;;;;;;;;;;24.40;54.40;;;;;;5114880;28;19960;-75
2022/07/30 01:30:16;;;;;;;;;;;24.40;54.40;;;;;;5113286;28;19911;-74
2022/07/30 01:32:43;;;;;;;;;;;24.40;54.50;;;;;;5114525;28;20376;-75
2022/07/30 01:35:10;;;;;;;;;;;24.40;54.60;;;;;;5114506;28;19919;-75
2022/07/30 01:37:36;;;;;;;;;;;24.40;54.40;;;;;;5114988;28;19916;-75
2022/07/30 01:40:03;;;;;;;;;;;24.40;54.40;;;;;;5114615;28;19915;-75
2022/07/30 01:42:29;;;;;;;;;;;24.30;54.60;;;;;;5114647;28;19994;-75
2022/07/30 01:44:55;;;;;;;;;;;24.20;54.50;;;;;;5114584;28;19966;-76
2022/07/30 01:47:21;;;;;;;;;;;24.30;54.60;;;;;;5114336;28;20392;-75
2022/07/30 01:49:48;;;;;;;;;;;24.20;54.60;;;;;;5114490;28;19947;-75
2022/07/30 01:52:15;;;;;;;;;;;24.20;54.60;;;;;;5114663;28;20265;-75
2022/07/30 01:54:43;;;;;;;;;;;24.20;54.70;;;;;;5114572;28;19918;-75
2022/07/30 01:57:09;;;;;;;;;;;24.20;54.60;;;;;;5114231;28;19916;-75
2022/07/30 01:59:36;;;;;;;;;;;24.20;54.70;;;;;;5114204;28;19980;-75
2022/07/30 02:02:02;;;;;;;;;;;24.20;54.90;;;;;;5114406;28;20392;-76
2022/07/30 02:04:28;;;;;;;;;;;24.20;55.00;;;;;;5113519;28;19958;-75
2022/07/30 02:07:05;;;;;;;;;;;24.20;54.90;;;;;;5114244;28;19907;-75
2022/07/30 02:09:34;;;;;;;;;;;24.10;54.70;;;;;;5114417;28;19912;-76
2022/07/30 02:14:46;;;;;;;;;;;24.10;54.70;;;;;;5114746;28;20327;-76
2022/07/30 02:17:15;;;;;;;;;;;24.10;55.00;;;;;;5112918;28;19916;-76
2022/07/30 02:19:42;;;;;;;;;;;24.10;54.90;;;;;;5114125;28;19915;-76
2022/07/30 02:22:09;;;;;;;;;;;24.00;55.00;;;;;;5114293;28;19908;-76
2022/07/30 02:24:36;;;;;;;;;;;24.10;55.10;;;;;;5114005;28;19952;-75
2022/07/30 02:27:10;;;;;;;;;;;24.00;55.10;;;;;;5114282;28;19908;-75
2022/07/30 02:29:36;;;;;;;;;;;24.00;55.00;;;;;;5114336;28;19908;-75
2022/07/30 02:32:05;;;;;;;;;;;24.00;55.10;;;;;;5114569;28;19908;-75
2022/07/30 02:34:32;;;;;;;;;;;24.00;55.10;;;;;;5114034;28;19931;-75
2022/07/30 02:36:58;;;;;;;;;;;24.00;55.00;;;;;;5113770;28;19938;-76
2022/07/30 02:39:25;;;;;;;;;;;24.10;55.10;;;;;;5114067;28;19965;-76
2022/07/30 02:41:52;;;;;;;;;;;24.10;55.00;;;;;;5113907;28;20022;-76
2022/07/30 02:44:19;;;;;;;;;;;24.10;54.80;;;;;;5113995;28;19908;-76
2022/07/30 02:46:45;;;;;;;;;;;24.20;54.90;;;;;;5113972;28;20412;-76
2022/07/30 02:49:12;;;;;;;;;;;24.30;54.70;;;;;;5112662;28;20327;-76
2022/07/30 02:51:38;;;;;;;;;;;24.40;54.60;;;;;;5114215;28;19998;-76
2022/07/30 02:54:04;;;;;;;;;;;24.40;54.60;;;;;;5113978;28;19951;-76
2022/07/30 02:56:30;;;;;;;;;;;24.40;54.40;;;;;;5113696;28;20418;-76
2022/07/30 02:58:56;;;;;;;;;;;24.40;54.40;;;;;;5114197;28;19956;-76
2022/07/30 03:01:23;;;;;;;;;;;24.30;54.30;;;;;;5116231;28;19956;-76
2022/07/30 03:03:49;;;;;;;;;;;24.30;54.50;;;;;;5116265;28;20413;-76
2022/07/30 03:06:16;;;;;;;;;;;24.30;54.60;;;;;;5117310;28;19933;-76
2022/07/30 03:08:43;;;;;;;;;;;24.30;54.60;;;;;;5116579;28;20388;-76
2022/07/30 03:11:10;;;;;;;;;;;24.30;54.60;;;;;;5117332;28;20411;-76
2022/07/30 03:13:36;;;;;;;;;;;24.30;54.70;;;;;;5116067;28;19908;-76
2022/07/30 03:16:03;;;;;;;;;;;24.30;54.60;;;;;;5117050;28;20315;-76
2022/07/30 03:18:32;;;;;;;;;;;24.30;54.60;;;;;;5116941;28;19918;-76
2022/07/30 03:20:59;;;;;;;;;;;24.30;54.80;;;;;;5117357;28;20432;-76
2022/07/30 03:23:25;;;;;;;;;;;24.40;54.90;;;;;;5117552;28;19908;-76
2022/07/30 03:25:53;;;;;;;;;;;24.40;55.00;;;;;;5117081;28;20424;-75
2022/07/30 03:28:20;;;;;;;;;;;24.40;55.00;;;;;;5117137;28;19908;-76
2022/07/30 03:30:46;;;;;;;;;;;24.40;55.00;;;;;;5116979;28;20010;-76
2022/07/30 03:33:12;;;;;;;;;;;24.40;55.10;;;;;;5115533;28;19958;-76
2022/07/30 03:35:40;;;;;;;;;;;24.50;55.00;;;;;;5116895;28;19981;-75
2022/07/30 03:38:06;;;;;;;;;;;24.50;55.00;;;;;;5117119;28;19919;-76
2022/07/30 03:40:32;;;;;;;;;;;24.60;55.00;;;;;;5115808;28;19912;-76
2022/07/30 03:42:57;;;;;;;;;;;24.60;54.90;;;;;;5116891;28;19908;-76
2022/07/30 03:45:23;;;;;;;;;;;24.60;54.90;;;;;;5116698;28;20349;-76
2022/07/30 03:47:49;;;;;;;;;;;24.70;55.00;;;;;;5115360;28;19919;-76
2022/07/30 03:50:15;;;;;;;;;;;24.70;54.90;;;;;;5116632;28;19961;-76
2022/07/30 03:52:40;;;;;;;;;;;24.80;55.10;;;;;;5116839;28;19911;-75
2022/07/30 03:55:07;;;;;;;;;;;24.80;55.00;;;;;;5116482;28;19911;-76
2022/07/30 03:57:32;;;;;;;;;;;24.80;55.10;;;;;;5116319;28;19916;-76
2022/07/30 03:59:58;;;;;;;;;;;24.80;55.00;;;;;;5116343;28;19957;-75
2022/07/30 04:02:24;;;;;;;;;;;24.80;55.10;;;;;;5116090;28;19908;-77
2022/07/30 04:04:49;;;;;;;;;;;24.80;55.10;;;;;;5116574;28;19950;-75
2022/07/30 04:07:15;;;;;;;;;;;24.80;55.30;;;;;;5116263;28;19908;-76
2022/07/30 04:09:40;;;;;;;;;;;24.80;55.20;;;;;;5115986;28;19912;-77
2022/07/30 04:12:06;;;;;;;;;;;24.70;55.60;;;;;;5114942;28;19919;-75
2022/07/30 04:14:41;;;;;;;;;;;24.80;55.30;;;;;;5116196;28;19907;-75
2022/07/30 04:17:10;;;;;;;;;;;24.80;56.00;;;;;;5114713;28;20344;-76
2022/07/30 04:19:56;;;;;;;;;;;24.80;56.00;;;;;;5114811;28;19908;-76
2022/07/30 04:22:32;;;;;;;;;;;24.80;56.10;;;;;;5115405;28;19908;-76
2022/07/30 04:24:59;;;;;;;;;;;24.90;56.30;;;;;;5116002;28;19908;-75
2022/07/30 04:27:25;;;;;;;;;;;24.90;56.00;;;;;;5115854;28;19907;-76
2022/07/30 04:29:54;;;;;;;;;;;24.90;56.00;;;;;;5115981;28;20331;-76
2022/07/30 04:32:20;;;;;;;;;;;25.00;56.40;;;;;;5115720;28;19915;-76
2022/07/30 04:34:49;;;;;;;;;;;25.00;55.90;;;;;;5115801;28;20296;-76
2022/07/30 04:37:15;;;;;;;;;;;25.10;55.90;;;;;;5115424;28;19920;-75
2022/07/30 04:39:41;;;;;;;;;;;25.10;56.40;;;;;;5115522;28;19919;-76
2022/07/30 04:42:06;;;;;;;;;;;25.10;56.40;;;;;;5115797;28;19912;-76
2022/07/30 04:44:33;;;;;;;;;;;25.10;57.00;;;;;;5114353;28;20273;-76
2022/07/30 04:46:58;;;;;;;;;;;25.10;56.60;;;;;;5115521;28;19915;-76
2022/07/30 04:49:25;;;;;;;;;;;25.10;56.80;;;;;;5113932;28;19908;-75
2022/07/30 04:51:52;;;;;;;;;;;25.10;57.20;;;;;;5115378;28;19964;-76
2022/07/30 04:54:18;;;;;;;;;;;25.10;56.40;;;;;;5115606;28;19921;-77
2022/07/30 04:56:46;;;;;;;;;;;25.10;56.80;;;;;;5115026;28;19916;-79
2022/07/30 04:59:12;;;;;;;;;;;25.20;57.30;;;;;;5113813;28;19922;-76
2022/07/30 05:01:39;;;;;;;;;;;25.10;57.00;;;;;;5115107;28;19990;-76
2022/07/30 05:04:05;;;;;;;;;;;25.10;57.70;;;;;;5115052;28;20362;-76
2022/07/30 05:06:31;;;;;;;;;;;25.20;58.30;;;;;;5114094;28;20280;-76
2022/07/30 05:08:57;;;;;;;;;;;25.20;57.70;;;;;;5113622;28;19907;-76
2022/07/30 05:11:23;;;;;;;;;;;25.20;56.70;;;;;;5113885;28;19915;-76
2022/07/30 05:13:48;;;;;;;;;;;25.20;58.40;;;;;;5115024;28;19908;-77
2022/07/30 05:16:14;;;;;;;;;;;24.20;56.20;;;;;;5114589;28;19926;-76
2022/07/30 05:18:40;;;;;;;;;;;25.30;57.80;;;;;;5114881;28;19998;-76
2022/07/30 05:21:06;;;;;;;;;;;25.30;57.70;;;;;;5114771;28;19911;-77
2022/07/30 05:23:31;;;;;;;;;;;25.40;57.80;;;;;;5114239;28;20409;-78
2022/07/30 05:25:57;;;;;;;;;;;25.40;57.50;;;;;;5114596;28;20362;-77
2022/07/30 05:28:25;;;;;;;;;;;25.50;56.80;;;;;;5114769;28;19908;-76
2022/07/30 05:30:52;;;;;;;;;;;25.60;57.90;;;;;;5115331;28;19961;-77
2022/07/30 05:33:18;;;;;;;;;;;25.60;57.70;;;;;;5114587;28;19921;-76
2022/07/30 05:35:44;;;;;;;;;;;25.60;57.70;;;;;;5113129;28;19923;-77
2022/07/30 05:38:09;;;;;;;;;;;25.70;57.20;;;;;;5114463;28;20358;-76
2022/07/30 05:40:35;;;;;;;;;;;25.70;57.20;;;;;;5114739;28;19915;-76
2022/07/30 05:43:00;;;;;;;;;;;25.80;57.10;;;;;;5114811;28;19965;-76
2022/07/30 05:45:26;;;;;;;;;;;25.90;57.10;;;;;;5114546;28;19964;-77
2022/07/30 05:47:51;;;;;;;;;;;25.90;56.90;;;;;;5114598;28;20308;-76
2022/07/30 05:50:17;;;;;;;;;;;26.00;56.90;;;;;;5113008;28;20281;-75
2022/07/30 05:52:42;;;;;;;;;;;26.00;56.50;;;;;;5114664;28;19915;-77
2022/07/30 05:55:08;;;;;;;;;;;26.10;56.60;;;;;;5114690;28;19914;-76
2022/07/30 05:57:35;;;;;;;;;;;26.10;56.40;;;;;;5114249;28;19923;-76
2022/07/30 06:00:01;;;;;;;;;;;26.10;56.50;;;;;;5114283;28;19908;-77
2022/07/30 06:02:26;;;;;;;;;;;26.20;56.50;;;;;;5114400;28;20014;-76
2022/07/30 06:04:52;;;;;;;;;;;26.20;56.20;;;;;;5113099;28;20371;-76
2022/07/30 06:07:17;;;;;;;;;;;26.30;56.30;;;;;;5114151;28;19915;-76
2022/07/30 06:09:43;;;;;;;;;;;26.30;56.10;;;;;;5114234;28;19994;-76
2022/07/30 06:12:09;;;;;;;;;;;26.40;56.10;;;;;;5112839;28;19992;-76
2022/07/30 06:14:34;;;;;;;;;;;26.50;56.10;;;;;;5114653;28;20302;-76
2022/07/30 06:17:00;;;;;;;;;;;26.50;55.90;;;;;;5113917;28;19916;-77
2022/07/30 06:19:25;;;;;;;;;;;26.50;55.80;;;;;;5114080;28;19915;-76
2022/07/30 06:21:51;;;;;;;;;;;26.60;55.80;;;;;;5114245;28;19935;-76
2022/07/30 06:24:16;;;;;;;;;;;26.60;55.70;;;;;;5114030;28;20273;-76
2022/07/30 06:26:42;;;;;;;;;;;26.70;55.20;;;;;;5113971;28;20331;-77
2022/07/30 06:29:07;;;;;;;;;;;26.70;55.10;;;;;;5114151;28;20006;-76
2022/07/30 06:31:33;;;;;;;;;;;26.70;54.90;;;;;;5113018;28;19915;-77
2022/07/30 06:33:58;;;;;;;;;;;26.70;54.60;;;;;;5113236;28;19914;-76
2022/07/30 06:36:24;;;;;;;;;;;26.80;54.50;;;;;;5117592;28;20023;-76
2022/07/30 06:38:50;;;;;;;;;;;26.80;54.70;;;;;;5117683;28;19915;-78
2022/07/30 06:41:15;;;;;;;;;;;26.80;54.60;;;;;;5117734;28;19961;-77
2022/07/30 06:43:41;;;;;;;;;;;26.80;54.40;;;;;;5118133;28;20006;-76
2022/07/30 06:46:07;;;;;;;;;;;26.80;54.30;;;;;;5117930;28;20014;-76
2022/07/30 06:48:32;;;;;;;;;;;26.90;54.20;;;;;;5117762;28;20406;-76
2022/07/30 06:50:58;;;;;;;;;;;26.90;53.90;;;;;;5118130;28;19915;-76
2022/07/30 06:53:23;;;;;;;;;;;26.90;53.70;;;;;;5116116;28;19908;-76
2022/07/30 06:55:49;;;;;;;;;;;26.90;53.80;;;;;;5117321;28;20019;-76
2022/07/30 06:58:15;;;;;;;;;;;26.90;54.10;;;;;;5117577;28;19908;-76
2022/07/30 07:00:43;;;;;;;;;;;26.90;53.70;;;;;;5117670;28;19919;-77
2022/07/30 07:03:09;;;;;;;;;;;26.90;53.50;;;;;;5117594;28;19930;-76
2022/07/30 07:05:35;;;;;;;;;;;26.90;53.80;;;;;;5117652;28;19908;-77
2022/07/30 07:08:00;;;;;;;;;;;26.90;53.70;;;;;;5117233;28;19911;-77
2022/07/30 07:10:26;;;;;;;;;;;26.90;53.70;;;;;;5116365;28;19915;-76
2022/07/30 07:12:52;;;;;;;;;;;26.90;53.60;;;;;;5117244;28;19955;-76
2022/07/30 07:15:17;;;;;;;;;;;26.90;53.30;;;;;;5117303;28;19908;-76
2022/07/30 07:17:43;;;;;;;;;;;26.90;53.20;;;;;;5117017;28;20324;-77
2022/07/30 07:20:09;;;;;;;;;;;27.00;53.50;;;;;;5117171;28;19907;-78
2022/07/30 07:22:35;;;;;;;;;;;26.90;53.40;;;;;;5115756;28;20358;-77
2022/07/30 07:25:00;;;;;;;;;;;27.00;53.10;;;;;;5118826;28;19919;-76
2022/07/30 07:27:26;;;;;;;;;;;26.90;52.40;;;;;;5117128;28;19908;-76
2022/07/30 07:29:51;;;;;;;;;;;26.90;51.60;;;;;;5115899;28;19907;-73
2022/07/30 07:32:17;;;;;;;;;;;26.90;51.70;;;;;;5115667;28;19908;-76
2022/07/30 07:34:42;;;;;;;;;;;26.90;51.90;;;;;;5116794;28;20353;-76
2022/07/30 07:37:08;;;;;;;;;;;26.90;51.60;;;;;;5116909;28;19920;-76
2022/07/30 07:39:33;;;;;;;;;;;26.90;51.30;;;;;;5116833;28;19907;-77
2022/07/30 07:41:59;;;;;;;;;;;27.00;52.20;;;;;;5116806;28;19996;-76
2022/07/30 07:44:25;;;;;;;;;;;27.00;51.60;;;;;;5116664;28;19908;-76
2022/07/30 07:46:50;;;;;;;;;;;27.10;51.80;;;;;;5116389;28;20000;-77
2022/07/30 07:49:16;;;;;;;;;;;27.10;51.30;;;;;;5115505;28;19994;-76
2022/07/30 07:51:41;;;;;;;;;;;27.10;51.60;;;;;;5116147;28;20345;-77
2022/07/30 07:54:07;;;;;;;;;;;27.10;51.60;;;;;;5116453;28;19908;-77
2022/07/30 07:56:32;;;;;;;;;;;27.20;51.70;;;;;;5117063;28;19975;-78
2022/07/30 07:58:58;;;;;;;;;;;27.20;51.30;;;;;;5116943;28;19908;-76
2022/07/30 08:01:23;;;;;;;;;;;27.20;51.20;;;;;;5117175;28;20304;-78
2022/07/30 08:03:49;;;;;;;;;;;27.30;50.70;;;;;;5114177;28;19915;-79
2022/07/30 08:06:14;;;;;;;;;;;27.30;50.70;;;;;;5113748;28;19907;-79
2022/07/30 08:08:40;;;;;;;;;;;27.30;50.30;;;;;;5115055;28;19993;-79
2022/07/30 08:11:06;;;;;;;;;;;27.30;50.00;;;;;;5115003;28;20105;-79
2022/07/30 08:13:31;;;;;;;;;;;27.40;50.70;;;;;;5115132;28;19915;-78
2022/07/30 08:16:00;;;;;;;;;;;27.40;50.10;;;;;;5114945;28;19916;-77
2022/07/30 08:18:26;;;;;;;;;;;27.40;50.00;;;;;;5114519;28;19912;-76
2022/07/30 08:20:52;;;;;;;;;;;27.40;50.10;;;;;;5114468;28;20270;-77
2022/07/30 08:23:18;;;;;;;;;;;27.40;50.10;;;;;;5113533;28;19958;-77
2022/07/30 08:25:44;;;;;;;;;;;27.40;50.00;;;;;;5114447;28;20281;-78
2022/07/30 08:28:09;;;;;;;;;;;27.40;50.00;;;;;;5113464;28;19918;-78
2022/07/30 08:30:35;;;;;;;;;;;27.40;50.40;;;;;;5114259;28;19947;-76
2022/07/30 08:33:01;;;;;;;;;;;27.40;49.90;;;;;;5114585;28;19922;-75
2022/07/30 08:35:27;;;;;;;;;;;27.40;50.20;;;;;;5113805;28;20011;-75
2022/07/30 08:37:52;;;;;;;;;;;27.40;49.90;;;;;;5115281;28;20457;-76
2022/07/30 08:40:19;;;;;;;;;;;27.30;50.30;;;;;;5114309;28;19908;-76
2022/07/30 08:42:44;;;;;;;;;;;27.30;50.30;;;;;;5114347;28;19912;-76
2022/07/30 08:45:11;;;;;;;;;;;27.30;49.80;;;;;;5115539;28;19907;-77
2022/07/30 08:47:39;;;;;;;;;;;27.30;49.70;;;;;;5115510;28;19908;-77
2022/07/30 08:50:06;;;;;;;;;;;27.30;50.10;;;;;;5114999;28;19908;-76
2022/07/30 08:52:34;;;;;;;;;;;27.20;50.10;;;;;;5115042;28;19994;-77
2022/07/30 08:55:00;;;;;;;;;;;27.30;50.10;;;;;;5115224;28;19943;-77
2022/07/30 08:57:28;;;;;;;;;;;27.20;49.30;;;;;;5114088;28;19959;-77
2022/07/30 08:59:54;;;;;;;;;;;27.20;49.60;;;;;;5115123;28;19916;-77
2022/07/30 09:02:20;;;;;;;;;;;27.30;49.40;;;;;;5114897;28;19912;-76
2022/07/30 09:04:45;;;;;;;;;;;27.20;49.80;;;;;;5115178;28;20313;-77
2022/07/30 09:07:11;;;;;;;;;;;27.20;49.80;;;;;;5115167;28;20385;-77
2022/07/30 09:09:37;;;;;;;;;;;27.30;49.70;;;;;;5115163;28;20289;-76
2022/07/30 09:12:03;;;;;;;;;;;27.30;49.60;;;;;;5113612;28;19931;-77
2022/07/30 09:14:29;;;;;;;;;;;27.20;49.40;;;;;;5114781;28;19908;-76
2022/07/30 09:16:55;;;;;;;;;;;27.20;49.50;;;;;;5114932;28;19919;-77
2022/07/30 09:19:20;;;;;;;;;;;27.20;49.40;;;;;;5114443;28;20006;-76
2022/07/30 09:21:56;;;;;;;;;;;27.20;49.30;;;;;;5115090;28;19992;-78
2022/07/30 09:24:22;;;;;;;;;;;27.20;49.50;;;;;;5115092;28;19911;-77
2022/07/30 09:26:58;;;;;;;;;;;27.20;49.40;;;;;;5114818;28;19907;-76
2022/07/30 09:29:27;;;;;;;;;;;27.20;49.30;;;;;;5114613;28;19939;-77
2022/07/30 09:32:00;;;;;;;;;;;27.30;49.30;;;;;;5114913;28;19908;-76
2022/07/30 09:34:29;;;;;;;;;;;27.30;49.50;;;;;;5114895;28;22917;-77
2022/07/30 09:36:59;;;;;;;;;;;27.20;49.40;;;;;;5114560;28;19916;-76
2022/07/30 09:39:28;;;;;;;;;;;27.30;49.60;;;;;;5113954;28;19912;-76
2022/07/30 09:41:55;;;;;;;;;;;27.30;49.40;;;;;;5113650;28;19907;-76
2022/07/30 09:44:24;;;;;;;;;;;27.30;49.50;;;;;;5114680;28;19915;-78
2022/07/30 09:46:50;;;;;;;;;;;27.30;49.50;;;;;;5114566;28;19954;-76
2022/07/30 09:49:20;;;;;;;;;;;27.20;49.40;;;;;;5113299;28;19908;-77
2022/07/30 09:51:45;;;;;;;;;;;27.30;49.50;;;;;;5115120;28;19907;-76
2022/07/30 09:54:11;;;;;;;;;;;27.30;49.60;;;;;;5113287;28;20277;-76
2022/07/30 09:56:38;;;;;;;;;;;27.30;49.50;;;;;;5114047;28;20335;-77
2022/07/30 09:59:05;;;;;;;;;;;27.30;49.30;;;;;;5114072;28;20470;-79
2022/07/30 10:01:50;;;;;;;;;;;27.30;49.60;;;;;;5113039;28;20265;-77
2022/07/30 10:04:42;;;;;;;;;;;27.30;49.60;;;;;;5114421;28;19911;-77
2022/07/30 10:07:18;;;;;;;;;;;27.40;49.60;;;;;;5112928;28;19915;-75
2022/07/30 10:09:46;;;;;;;;;;;27.40;49.70;;;;;;5116495;28;19914;-77
2022/07/30 10:12:12;;;;;;;;;;;27.40;49.70;;;;;;5118302;28;19912;-76
2022/07/30 10:14:40;;;;;;;;;;;27.40;49.70;;;;;;5118579;28;19908;-75
2022/07/30 10:17:06;;;;;;;;;;;27.40;49.70;;;;;;5118325;28;19912;-76
2022/07/30 10:19:32;;;;;;;;;;;27.50;49.80;;;;;;5118105;28;19918;-78
2022/07/30 10:21:58;;;;;;;;;;;27.50;49.70;;;;;;5117018;28;20002;-76
2022/07/30 10:24:24;;;;;;;;;;;27.50;49.80;;;;;;5118402;28;19912;-77
2022/07/30 10:26:51;;;;;;;;;;;27.50;49.80;;;;;;5117100;28;19908;-76
2022/07/30 10:29:17;;;;;;;;;;;27.50;49.90;;;;;;5116580;28;19908;-76
2022/07/30 10:31:46;;;;;;;;;;;27.50;49.90;;;;;;5117260;28;19915;-77
2022/07/30 10:34:13;;;;;;;;;;;27.50;50.00;;;;;;5117600;28;19912;-76
2022/07/30 10:36:49;;;;;;;;;;;27.50;49.90;;;;;;5118244;28;20006;-76
2022/07/30 10:39:16;;;;;;;;;;;27.50;50.10;;;;;;5118236;28;19920;-77
2022/07/30 10:41:45;;;;;;;;;;;27.50;50.10;;;;;;5117799;28;19912;-76
2022/07/30 10:44:18;;;;;;;;;;;27.60;49.90;;;;;;5117734;27;20284;-75
2022/07/30 10:46:46;;;;;;;;;;;27.50;50.00;;;;;;5117597;28;19908;-76
2022/07/30 10:49:13;;;;;;;;;;;27.60;50.00;;;;;;5117794;28;19912;-76
2022/07/30 10:51:46;;;;;;;;;;;27.60;50.00;;;;;;5117682;28;19930;-78
2022/07/30 10:54:30;;;;;;;;;;;27.60;50.00;;;;;;5117656;28;19908;-76
2022/07/30 10:57:03;;;;;;;;;;;27.60;50.00;;;;;;5117580;28;19957;-76
2022/07/30 10:59:29;;;;;;;;;;;27.70;50.10;;;;;;5117692;28;20285;-76
2022/07/30 11:01:57;;;;;;;;;;;27.70;50.10;;;;;;5117331;28;19908;-76
2022/07/30 11:04:26;;;;;;;;;;;27.70;50.00;;;;;;5117282;28;19969;-76
2022/07/30 11:07:12;;;;;;;;;;;27.80;50.00;;;;;;5115951;28;19947;-77
2022/07/30 11:09:39;;;;;;;;;;;27.80;49.90;;;;;;5117325;28;19907;-76
2022/07/30 11:12:05;;;;;;;;;;;27.80;49.90;;;;;;5117163;28;19962;-76
2022/07/30 11:14:46;;;;;;;;;;;27.80;49.90;;;;;;5117469;28;19912;-76
2022/07/30 11:17:12;;;;;;;;;;;27.90;50.00;;;;;;5117314;28;19916;-76
2022/07/30 11:19:58;;;;;;;;;;;27.10;49.30;;;;;;5116672;28;19916;-76
2022/07/30 11:22:25;;;;;;;;;;;28.00;49.70;;;;;;5112628;28;19939;-77
2022/07/30 11:24:51;;;;;;;;;;;28.00;49.80;;;;;;5117041;28;19912;-75
2022/07/30 11:27:36;;;;;;;;;;;28.00;49.70;;;;;;5116012;28;20379;-77
2022/07/30 11:30:03;;;;;;;;;;;28.10;49.70;;;;;;5117304;28;19919;-77
2022/07/30 11:32:30;;;;;;;;;;;28.20;49.70;;;;;;5115793;28;20414;-76
2022/07/30 11:35:13;;;;;;;;;;;28.20;49.60;;;;;;5117004;28;20362;-76
2022/07/30 11:37:54;;;;;;;;;;;28.30;49.40;;;;;;5115649;28;19923;-76
2022/07/30 11:40:19;;;;;;;;;;;28.30;49.50;;;;;;5117102;28;19912;-76
2022/07/30 11:42:45;;;;;;;;;;;28.20;49.30;;;;;;5116764;28;19976;-76
2022/07/30 11:45:17;;;;;;;;;;;28.20;49.30;;;;;;5116673;28;19919;-77
2022/07/30 11:47:47;;;;;;;;;;;28.20;49.30;;;;;;5115562;28;20365;-76
2022/07/30 11:50:24;;;;;;;;;;;28.20;49.30;;;;;;5115233;28;19908;-76
2022/07/30 11:52:50;;;;;;;;;;;28.30;49.40;;;;;;5116505;28;19907;-77
2022/07/30 11:55:37;;;;;;;;;;;28.30;49.30;;;;;;5116365;28;20315;-77
2022/07/30 11:58:07;;;;;;;;;;;28.30;49.40;;;;;;5115435;28;19954;-76
2022/07/30 12:00:46;;;;;;;;;;;28.30;49.30;;;;;;5116546;28;20280;-78
2022/07/30 12:03:13;;;;;;;;;;;28.30;49.30;;;;;;5115367;28;20331;-77
2022/07/30 12:05:40;;;;;;;;;;;28.30;49.40;;;;;;5115957;28;20327;-78
2022/07/30 12:08:05;;;;;;;;;;;28.30;49.40;;;;;;5115017;28;19961;-77
2022/07/30 12:10:31;;;;;;;;;;;28.30;49.30;;;;;;5115822;28;19912;-76
2022/07/30 12:13:06;;;;;;;;;;;28.30;49.30;;;;;;5114727;28;20021;-76
2022/07/30 12:15:33;;;;;;;;;;;28.30;49.30;;;;;;5115799;28;19915;-76
2022/07/30 12:17:59;;;;;;;;;;;28.40;49.40;;;;;;5114586;28;19912;-77
2022/07/30 12:20:26;;;;;;;;;;;28.40;49.30;;;;;;5115969;28;19908;-77
2022/07/30 12:22:51;;;;;;;;;;;28.40;49.30;;;;;;5115955;28;19925;-77
2022/07/30 12:25:17;;;;;;;;;;;28.40;49.20;;;;;;5116267;28;19998;-76
2022/07/30 12:27:47;;;;;;;;;;;28.40;49.30;;;;;;5114640;28;19930;-77
2022/07/30 12:30:13;;;;;;;;;;;28.40;49.20;;;;;;5115916;28;20273;-76
2022/07/30 12:32:39;;;;;;;;;;;28.40;49.20;;;;;;5115681;28;19915;-76
2022/07/30 12:35:05;;;;;;;;;;;28.50;49.20;;;;;;5115543;28;19920;-77
2022/07/30 12:37:30;;;;;;;;;;;28.50;49.20;;;;;;5114703;28;19945;-76
2022/07/30 12:40:16;;;;;;;;;;;28.50;49.10;;;;;;5115700;28;19918;-77
2022/07/30 12:42:49;;;;;;;;;;;28.60;49.10;;;;;;5114560;28;20262;-76
2022/07/30 12:45:31;;;;;;;;;;;28.60;49.10;;;;;;5115650;28;19929;-77
2022/07/30 12:47:57;;;;;;;;;;;28.70;49.10;;;;;;5116090;28;19968;-76
2022/07/30 12:50:23;;;;;;;;;;;28.70;48.90;;;;;;5115456;28;19919;-77
2022/07/30 12:52:52;;;;;;;;;;;28.80;49.00;;;;;;5115866;28;19908;-76
2022/07/30 12:55:19;;;;;;;;;;;28.90;49.00;;;;;;5115758;28;19908;-78
2022/07/30 12:57:55;;;;;;;;;;;28.90;48.90;;;;;;5115353;28;19912;-78
2022/07/30 13:00:21;;;;;;;;;;;29.00;48.90;;;;;;5115656;28;19916;-78
2022/07/30 13:02:47;;;;;;;;;;;29.00;48.80;;;;;;5115038;28;19907;-76
2022/07/30 13:05:13;;;;;;;;;;;29.10;48.70;;;;;;5115237;28;19942;-77
2022/07/30 13:07:58;;;;;;;;;;;29.20;48.70;;;;;;5114259;28;19907;-77
2022/07/30 13:10:25;;;;;;;;;;;29.30;48.60;;;;;;5113125;28;19933;-76
2022/07/30 13:12:50;;;;;;;;;;;29.40;48.50;;;;;;5114085;28;19994;-77
2022/07/30 13:15:19;;;;;;;;;;;29.40;48.50;;;;;;5115011;28;19951;-77
2022/07/30 13:17:45;;;;;;;;;;;29.50;48.30;;;;;;5114969;28;20353;-75
2022/07/30 13:20:12;;;;;;;;;;;29.50;48.30;;;;;;5114962;28;19919;-77
2022/07/30 13:22:37;;;;;;;;;;;29.70;48.30;;;;;;5115356;28;19908;-76
2022/07/30 13:25:03;;;;;;;;;;;29.70;48.20;;;;;;5114795;28;19908;-77
2022/07/30 13:27:29;;;;;;;;;;;29.80;48.00;;;;;;5115126;28;20289;-76
2022/07/30 13:29:54;;;;;;;;;;;29.90;48.00;;;;;;5113551;28;20284;-76
2022/07/30 13:32:20;;;;;;;;;;;30.00;47.80;;;;;;5114690;28;19908;-76
2022/07/30 13:34:46;;;;;;;;;;;30.20;48.00;;;;;;5113323;28;19942;-77
2022/07/30 13:37:11;;;;;;;;;;;30.40;48.00;;;;;;5114780;28;19949;-77
2022/07/30 13:39:37;;;;;;;;;;;30.60;48.10;;;;;;5114868;28;19961;-76
2022/07/30 13:42:02;;;;;;;;;;;30.90;48.10;;;;;;5114732;28;20413;-77
2022/07/30 13:44:28;;;;;;;;;;;31.30;48.20;;;;;;5114032;28;20316;-76
2022/07/30 13:46:53;;;;;;;;;;;31.60;47.80;;;;;;5114638;28;20312;-77
2022/07/30 13:49:19;;;;;;;;;;;31.80;47.20;;;;;;5114457;28;20410;-76
2022/07/30 13:51:44;;;;;;;;;;;32.10;47.50;;;;;;5114469;28;19911;-77
2022/07/30 13:54:10;;;;;;;;;;;32.30;46.50;;;;;;5114510;28;19908;-77
2022/07/30 13:56:35;;;;;;;;;;;32.60;46.90;;;;;;5113196;28;19912;-78
2022/07/30 13:59:01;;;;;;;;;;;32.90;46.70;;;;;;5114470;28;19915;-76
2022/07/30 14:01:27;;;;;;;;;;;33.20;46.10;;;;;;5114535;28;20002;-78
2022/07/30 14:03:52;;;;;;;;;;;33.70;45.70;;;;;;5115316;28;19923;-76
2022/07/30 14:06:18;;;;;;;;;;;34.20;44.80;;;;;;5114230;28;20421;-76
2022/07/30 14:08:43;;;;;;;;;;;34.70;44.90;;;;;;5114234;28;19908;-78
2022/07/30 14:11:09;;;;;;;;;;;35.10;44.00;;;;;;5114477;28;19914;-77
2022/07/30 14:13:34;;;;;;;;;;;35.60;43.80;;;;;;5114886;28;19908;-77
2022/07/30 14:16:00;;;;;;;;;;;36.10;43.50;;;;;;5114131;28;19919;-76
2022/07/30 14:18:26;;;;;;;;;;;36.50;43.70;;;;;;5114055;28;20003;-77
2022/07/30 14:20:52;;;;;;;;;;;36.80;43.90;;;;;;5114659;28;19959;-76